• Join FlightAware (Why Join?)
  • Login
  • US Flag 
11:04AM EDT


 

Airport Tracker/Info


-or-


 

Live Flight TrackerFlight Track Log ✈ N80KW ✈ 29-Aug-2013 ✈ 5J5 - KSPG

Flight Track Log - Related Links

Times and Time Zones

All times are in EDT time to prevent confusion due to time zone crossing. See the N80KW flight status page for this flight to view local times or setup timezone preferences in your user account.

Time Position Orientation Groundspeed Altitude Reporting Facility
EDT Latitude Longitude Course Direction KTS MPH feet Rate Location/Type
04:28PM 33.1958 -80.3806 200° South 112 129 10,400  Level Jacksonville Center
04:29PM 33.1606 -80.3964 201° Southwest 112 129 10,600 180 Climbing Jacksonville Center
04:30PM 33.1214 -80.4125 199° South 132 152 10,800  Climbing Jacksonville Center
04:31PM 33.0800 -80.4358 205° Southwest 152 175 10,600 -180 Descending Jacksonville Center
04:32PM 33.0344 -80.4594 203° Southwest 166 191 10,500  Descending Jacksonville Center
04:33PM 32.9908 -80.4728 194° South 171 197 10,600  Climbing Jacksonville Center
04:34PM 32.8637 -80.5808 200° South  Level Estimated
04:34PM 32.9494 -80.4914 201° Southwest 166 191 10,600  Level Jacksonville Center
04:35PM 32.9061 -80.5075 197° South 166 191 10,600  Level Jacksonville Center
04:36PM 32.8625 -80.5258 199° South 166 191 10,700  Climbing Jacksonville Center
04:37PM 32.8211 -80.5417 198° South 166 191 10,700  Level Jacksonville Center
04:38PM 32.7775 -80.5603 200° South 166 191 10,700  Level Jacksonville Center
04:39PM 32.7342 -80.5786 200° South 166 191 10,700  Level Jacksonville Center
04:40PM 32.6928 -80.5969 200° South 166 191 10,700  Level Jacksonville Center
04:41PM 32.6514 -80.6153 200° South 166 191 10,700  Level Jacksonville Center
04:42PM 32.6078 -80.6361 202° Southwest 170 196 10,700 -60 Level Jacksonville Center
04:43PM 32.5683 -80.6519 199° South 161 185 10,600  Descending Jacksonville Center
04:44PM 32.5250 -80.6703 200° South 167 192 10,700  Climbing Jacksonville Center
04:45PM 32.4836 -80.6883 200° South 163 188 10,700  Level Jacksonville Center
04:46PM 32.4400 -80.7067 200° South 168 193 10,700  Level Jacksonville Center
04:47PM 32.3986 -80.7250 201° Southwest 167 192 10,700  Level Jacksonville Center
04:48PM 32.3550 -80.7431 199° South 172 198 10,700  Level Jacksonville Center
04:49PM 32.3178 -80.7636 205° Southwest 172 198 10,700  Level Jacksonville Center
04:50PM 32.2764 -80.7794 198° South 172 198 10,700  Level Jacksonville Center
04:51PM 32.2306 -80.8000 201° Southwest 166 191 10,700  Level Jacksonville Center
04:52PM 32.1872 -80.8183 200° South 166 191 10,700  Level Jacksonville Center
04:53PM 32.1436 -80.8364 199° South 166 191 10,700  Level Jacksonville Center
04:54PM 32.1064 -80.8519 199° South 166 191 10,700  Level Jacksonville Center
04:55PM 32.0628 -80.8703 200° South 166 191 10,700  Level Jacksonville Center
04:56PM 32.0172 -80.8908 201° Southwest 166 191 10,700  Level Jacksonville Center
04:57PM 31.9736 -80.9114 202° Southwest 166 191 10,700  Level Jacksonville Center
04:58PM 31.9342 -80.9292 201° Southwest 166 191 10,700 -60 Level Jacksonville Center
04:59PM 31.8947 -80.9472 201° Southwest 166 191 10,600 -60 Descending Jacksonville Center
05:00PM 31.8511 -80.9653 199° South 171 197 10,600  Level Jacksonville Center
05:01PM 31.8014 -80.9883 202° Southwest 171 197 10,700  Climbing Jacksonville Center
05:02PM 31.7558 -81.0064 199° South 171 197 10,700  Level Jacksonville Center
05:03PM 31.7103 -81.0269 201° Southwest 171 197 10,700  Level Jacksonville Center
05:04PM 31.6644 -81.0425 196° South 177 204 10,700  Level Jacksonville Center
05:05PM 31.6125 -81.0631 199° South 177 204 10,700  Level Jacksonville Center
05:06PM 31.5669 -81.0833 201° Southwest 182 209 10,700  Level Jacksonville Center
05:07PM 31.5172 -81.1014 197° South 188 216 10,700  Level Jacksonville Center
05:08PM 31.4756 -81.1192 200° South 188 216 10,700  Level Jacksonville Center
05:09PM 31.4300 -81.1394 201° Southwest 188 216 10,700 -60 Level Jacksonville Center
05:10PM 31.3781 -81.1625 201° Southwest 188 216 10,600  Descending Jacksonville Center
05:11PM 31.3303 -81.1828 200° South 188 216 10,700  Climbing Jacksonville Center
05:12PM 31.2847 -81.2031 201° Southwest 188 216 10,700  Level Jacksonville Center
05:13PM 31.2369 -81.2233 200° South 181 208 10,700  Level Jacksonville Center
05:14PM 31.1911 -81.2436 201° Southwest 186 214 10,700  Level Jacksonville Center
05:15PM 31.1433 -81.2614 198° South 186 214 10,700  Level Jacksonville Center
05:16PM 31.0997 -81.2817 202° Southwest 186 214 10,700  Level Jacksonville Center
05:17PM 31.0519 -81.3017 200° South 186 214 10,700  Level Jacksonville Center
05:18PM 31.0083 -81.3194 199° South 186 214 10,700  Level Jacksonville Center
05:19PM 30.9628 -81.3372 199° South 186 214 10,700  Level Jacksonville Center
05:20PM 30.9192 -81.3572 201° Southwest 174 200 10,700  Level Jacksonville Center
05:21PM 30.8692 -81.3750 197° South 174 200 10,700  Level Jacksonville Center
05:22PM 30.8256 -81.3950 201° Southwest 186 214 10,700  Level Jacksonville Center
05:23PM 30.7819 -81.4128 199° South 172 198 10,700  Level Jacksonville Center
05:24PM 30.7322 -81.4328 199° South 186 214 10,700  Level Jacksonville Center
05:26PM 30.6803 -81.4531 199° South 176 203 10,700  Level Jacksonville Center
05:26PM 30.6469 -81.4681 201° Southwest 186 214 10,700  Level Jacksonville Center
05:27PM 30.6011 -81.4881 201° Southwest 186 214 10,700  Level Jacksonville Center
05:28PM 30.5556 -81.5056 198° South 186 214 10,700  Level Jacksonville Center
05:30PM 30.4953 -81.5281 198° South 176 203 10,700  Level Jacksonville Center
05:31PM 30.4494 -81.5456 198° South 175 201 10,700  Level Jacksonville Center
05:32PM 30.3994 -81.5681 201° Southwest 175 201 10,700  Level Jacksonville Center
05:33PM 30.3539 -81.5878 200° South 175 201 10,700  Level Jacksonville Center
05:34PM 30.3081 -81.6078 201° Southwest 175 201 10,700  Level Jacksonville Center
05:35PM 30.2622 -81.6275 200° South 176 203 10,700  Level Jacksonville Center
05:36PM 30.2167 -81.6475 201° Southwest 180 207 10,700  Level Jacksonville Center
05:37PM 30.1686 -81.6647 197° South 176 203 10,700 -60 Level Jacksonville Center
05:38PM 30.1272 -81.6822 200° South 174 200 10,600  Descending Jacksonville Center
05:39PM 30.0772 -81.7019 199° South 174 200 10,700  Climbing Jacksonville Center
05:40PM 30.0272 -81.7217 199° South 175 201 10,700  Level Jacksonville Center
05:41PM 29.9836 -81.7392 199° South 177 204 10,700  Level Jacksonville Center
05:42PM 29.9378 -81.7589 200° South 178 205 10,700  Level Jacksonville Center
05:43PM 29.8900 -81.7786 200° South 178 205 10,700  Level Jacksonville Center
05:44PM 29.8339 -81.8031 201° Southwest 180 207 10,700 -180 Level Jacksonville Center
05:45PM 29.7861 -81.8228 200° South 184 212 10,300 -720 Descending Jacksonville Center
05:46PM 29.7300 -81.8522 204° Southwest 215 247 9,300 -840 Descending Jacksonville Center
05:47PM 29.6800 -81.8719 199° South 200 230 8,700 -540 Descending Jacksonville Center
05:48PM 29.6281 -81.8939 200° South 191 220 8,200 -660 Descending Jacksonville Center
05:49PM 29.5739 -81.9183 201° Southwest 186 214 7,300 -900 Descending Jacksonville Center
05:50PM 29.5364 -81.9353 201° Southwest 189 217 6,600 -780 Descending Jacksonville Center
05:51PM 29.4906 -81.9453 191° South 191 220 6,100 -660 Descending Jacksonville Center
05:52PM 29.4281 -81.9769 204° Southwest 182 209 5,200 -600 Descending Jacksonville Center
05:53PM 29.3950 -82.0203 229° Southwest 182 209 4,700 -480 Descending Jacksonville Center
05:54PM 29.3619 -82.0633 229° Southwest 177 204 4,300 -420 Descending Jacksonville Center
05:55PM 29.3225 -82.0803 201° Southwest 178 205 4,000 -480 Descending Jacksonville Center
05:56PM 29.2744 -82.0950 195° South 184 212 3,500 -600 Descending Jacksonville Center
05:58PM 29.2050 -82.0970 181° South  Level FlightAware Approximate